createdAt,value
2022-10-05T00:00:50.710Z,0.70
2022-10-05T00:03:39.752Z,0.70
2022-10-05T00:06:11.546Z,0.60
2022-10-05T00:08:38.708Z,0.80
2022-10-05T00:11:13.170Z,0.80
2022-10-05T00:13:40.547Z,1.20
2022-10-05T00:16:09.910Z,0.60
2022-10-05T00:18:37.080Z,0.50
2022-10-05T00:21:16.951Z,0.60
2022-10-05T00:23:43.570Z,0.90
2022-10-05T00:26:17.788Z,0.60
2022-10-05T00:28:44.327Z,0.90
2022-10-05T00:31:23.281Z,1.40
2022-10-05T00:33:51.408Z,1.30
2022-10-05T00:36:18.587Z,1.10
2022-10-05T00:38:45.220Z,0.70
2022-10-05T00:41:22.051Z,0.70
2022-10-05T00:44:27.346Z,0.70
2022-10-05T00:47:31.468Z,1.10
2022-10-05T00:50:25.044Z,0.70
2022-10-05T00:53:17.820Z,0.80
2022-10-05T00:55:59.058Z,0.80
2022-10-05T00:58:31.778Z,0.50
2022-10-05T01:01:24.752Z,0.50
2022-10-05T01:04:42.695Z,0.60
2022-10-05T01:07:47.187Z,0.70
2022-10-05T01:10:44.721Z,0.50
2022-10-05T01:13:49.674Z,0.70
2022-10-05T01:16:49.508Z,0.90
2022-10-05T01:19:43.764Z,0.60
2022-10-05T01:22:55.985Z,0.60
2022-10-05T01:28:30.828Z,0.60
2022-10-05T01:31:15.956Z,0.80
2022-10-05T01:34:11.288Z,0.70
2022-10-05T01:37:03.797Z,0.50
2022-10-05T01:39:51.963Z,0.70
2022-10-05T01:42:48.318Z,0.60
2022-10-05T01:45:45.825Z,0.60
2022-10-05T01:48:42.056Z,0.70
2022-10-05T01:51:59.572Z,0.60
2022-10-05T01:55:22.182Z,1.50
2022-10-05T01:58:10.212Z,1.00
2022-10-05T02:01:24.639Z,0.70
2022-10-05T02:04:06.979Z,0.80
2022-10-05T02:06:42.610Z,0.60
2022-10-05T02:09:37.421Z,0.60
2022-10-05T02:12:13.400Z,0.80
2022-10-05T02:14:46.903Z,0.80
2022-10-05T02:17:21.697Z,0.70
2022-10-05T02:19:59.977Z,0.70
2022-10-05T02:22:36.528Z,0.70
2022-10-05T02:25:10.967Z,0.60
2022-10-05T02:27:56.093Z,0.60
2022-10-05T02:30:24.501Z,0.60
2022-10-05T02:33:07.867Z,0.80
2022-10-05T02:35:35.154Z,0.60
2022-10-05T02:38:22.696Z,0.40
2022-10-05T02:41:43.687Z,0.50
2022-10-05T02:44:51.377Z,0.70
2022-10-05T02:47:40.382Z,0.50
2022-10-05T02:50:38.312Z,0.50
2022-10-05T02:53:22.273Z,0.90
2022-10-05T02:56:03.913Z,0.70
2022-10-05T02:59:16.498Z,0.70
2022-10-05T03:02:26.112Z,0.90
2022-10-05T03:05:26.471Z,0.70
2022-10-05T03:08:17.157Z,0.60
2022-10-05T03:11:09.600Z,0.60
2022-10-05T03:14:02.698Z,0.70
2022-10-05T03:16:38.129Z,0.60
2022-10-05T03:19:30.428Z,0.60
2022-10-05T03:22:21.659Z,0.50
2022-10-05T03:25:17.063Z,0.70
2022-10-05T03:28:17.470Z,0.90
2022-10-05T03:30:53.596Z,0.70
2022-10-05T03:33:43.174Z,0.60
2022-10-05T03:36:49.532Z,0.60
2022-10-05T03:39:41.212Z,0.50
2022-10-05T03:42:48.408Z,0.80
2022-10-05T03:45:57.685Z,0.70
2022-10-05T03:49:16.484Z,0.50
2022-10-05T03:51:54.495Z,0.70
2022-10-05T03:54:31.848Z,2.20
2022-10-05T03:57:10.006Z,0.70
2022-10-05T04:00:13.397Z,0.70
2022-10-05T04:03:04.164Z,1.10
2022-10-05T04:05:50.306Z,0.80
2022-10-05T04:08:39.117Z,0.60
2022-10-05T04:11:18.996Z,0.70
2022-10-05T04:14:06.662Z,0.60
2022-10-05T04:16:46.532Z,0.60
2022-10-05T04:19:53.239Z,0.50
2022-10-05T04:22:38.057Z,0.80
2022-10-05T04:25:16.973Z,0.70
2022-10-05T04:27:59.743Z,1.20
2022-10-05T04:30:27.655Z,1.00
2022-10-05T04:32:58.021Z,0.90
2022-10-05T04:35:44.801Z,0.90
2022-10-05T04:38:41.535Z,0.80
2022-10-05T04:41:20.005Z,1.00
2022-10-05T04:44:23.630Z,0.80
2022-10-05T04:47:35.434Z,0.90
2022-10-05T04:50:31.566Z,0.70
2022-10-05T04:53:22.832Z,0.90
2022-10-05T04:56:06.298Z,0.80
2022-10-05T04:59:06.865Z,0.90
2022-10-05T05:02:13.233Z,0.50
2022-10-05T05:05:20.630Z,0.60
2022-10-05T05:08:15.026Z,0.70
2022-10-05T05:10:59.274Z,0.70
2022-10-05T05:13:34.610Z,0.90
2022-10-05T05:16:18.607Z,0.90
2022-10-05T05:19:25.208Z,1.10
2022-10-05T05:22:22.601Z,0.80
2022-10-05T05:25:29.499Z,0.80
2022-10-05T05:28:22.885Z,1.00
2022-10-05T05:31:04.370Z,0.90
2022-10-05T05:34:19.723Z,1.00
2022-10-05T05:36:57.284Z,1.10
2022-10-05T05:39:28.309Z,0.80
2022-10-05T05:42:25.840Z,1.00
2022-10-05T05:44:57.542Z,1.00
2022-10-05T05:47:38.335Z,0.90
2022-10-05T05:51:00.998Z,1.00
2022-10-05T05:53:31.118Z,0.80
2022-10-05T05:56:25.881Z,0.80
2022-10-05T05:59:21.888Z,1.20
2022-10-05T06:02:04.952Z,0.90
2022-10-05T06:04:44.953Z,1.20
2022-10-05T06:07:25.697Z,1.30
2022-10-05T06:10:28.584Z,1.10
2022-10-05T06:13:03.596Z,1.00
2022-10-05T06:15:51.371Z,1.00
2022-10-05T06:18:22.763Z,1.10
2022-10-05T06:21:01.194Z,1.10
2022-10-05T06:23:48.745Z,1.20
2022-10-05T06:26:41.553Z,0.90
2022-10-05T06:29:25.989Z,0.90
2022-10-05T06:32:31.456Z,1.00
2022-10-05T06:35:07.272Z,0.90
2022-10-05T06:37:43.230Z,1.60
2022-10-05T06:40:47.832Z,1.00
2022-10-05T06:44:16.628Z,1.60
2022-10-05T06:47:07.491Z,1.10
2022-10-05T06:50:12.005Z,1.00
2022-10-05T06:53:19.063Z,1.50
2022-10-05T06:56:08.153Z,1.40
2022-10-05T06:59:03.299Z,1.50
2022-10-05T07:01:57.910Z,1.80
2022-10-05T07:04:39.518Z,1.80
2022-10-05T07:07:24.512Z,2.00
2022-10-05T07:10:27.487Z,1.90
2022-10-05T07:13:22.607Z,1.80
2022-10-05T07:16:35.815Z,3.00
2022-10-05T07:19:35.120Z,1.90
2022-10-05T07:22:39.527Z,2.10
2022-10-05T07:26:02.146Z,2.50
2022-10-05T07:28:55.947Z,2.40
2022-10-05T07:31:44.936Z,2.70
2022-10-05T07:34:26.027Z,1.50
2022-10-05T07:37:26.822Z,1.50
2022-10-05T07:40:14.268Z,1.40
2022-10-05T07:44:02.523Z,1.20
2022-10-05T07:47:05.945Z,1.40
2022-10-05T07:49:56.552Z,1.90
2022-10-05T07:52:34.938Z,1.60
2022-10-05T07:55:27.146Z,1.80
2022-10-05T07:58:24.307Z,1.70
2022-10-05T08:01:02.874Z,1.90
2022-10-05T08:03:40.349Z,1.50
2022-10-05T08:06:27.070Z,1.70
2022-10-05T08:09:38.717Z,1.60
2022-10-05T08:12:41.342Z,1.70
2022-10-05T08:15:20.118Z,1.90
2022-10-05T08:18:11.621Z,2.00
2022-10-05T08:20:55.941Z,2.20
2022-10-05T08:23:39.749Z,2.00
2022-10-05T08:26:35.916Z,1.40
2022-10-05T08:29:47.043Z,1.80
2022-10-05T08:35:37.217Z,1.80
2022-10-05T08:38:14.209Z,1.80
2022-10-05T08:41:18.357Z,1.80
2022-10-05T08:44:25.706Z,1.60
2022-10-05T08:47:15.394Z,2.00
2022-10-05T08:50:17.208Z,2.00
2022-10-05T08:53:14.749Z,2.30
2022-10-05T08:56:19.080Z,3.00
2022-10-05T08:59:39.714Z,3.80
2022-10-05T09:02:46.640Z,2.00
2022-10-05T09:06:21.281Z,2.10
2022-10-05T09:09:33.456Z,1.70
2022-10-05T09:12:05.899Z,1.40
2022-10-05T09:15:26.809Z,1.10
2022-10-05T09:18:31.385Z,1.10
2022-10-05T09:21:36.078Z,1.10
2022-10-05T09:24:14.244Z,1.20
2022-10-05T09:26:40.654Z,1.30
2022-10-05T09:29:36.297Z,1.30
2022-10-05T09:32:35.284Z,1.10
2022-10-05T09:35:42.192Z,1.10
2022-10-05T09:38:31.005Z,1.10
2022-10-05T09:41:28.420Z,1.00
2022-10-05T09:44:04.357Z,1.10
2022-10-05T09:46:58.189Z,1.00
2022-10-05T09:49:58.813Z,1.20
2022-10-05T09:53:19.397Z,1.00
2022-10-05T09:56:00.847Z,1.10
2022-10-05T09:58:57.949Z,1.90
2022-10-05T10:01:45.894Z,1.00
2022-10-05T10:04:45.279Z,1.00
2022-10-05T10:07:21.182Z,0.80
2022-10-05T10:10:58.874Z,0.90
2022-10-05T10:13:55.972Z,1.30
2022-10-05T10:17:07.947Z,0.90
2022-10-05T10:20:01.047Z,1.10
2022-10-05T10:23:05.741Z,0.90
2022-10-05T10:25:49.170Z,0.90
2022-10-05T10:28:44.177Z,0.70
2022-10-05T10:31:46.988Z,0.90
2022-10-05T10:34:50.258Z,0.90
2022-10-05T10:38:08.757Z,0.80
2022-10-05T10:40:56.338Z,0.60
2022-10-05T10:44:10.540Z,0.80
2022-10-05T10:47:26.735Z,0.70
2022-10-05T10:50:41.819Z,0.90
2022-10-05T10:54:13.032Z,0.50
2022-10-05T10:56:53.959Z,0.60
2022-10-05T10:59:57.285Z,0.60
2022-10-05T11:03:15.598Z,0.70
2022-10-05T11:06:34.840Z,0.60
2022-10-05T11:09:47.266Z,0.40
2022-10-05T11:12:51.760Z,0.50
2022-10-05T11:15:55.966Z,0.70
2022-10-05T11:19:12.409Z,0.50
2022-10-05T11:21:56.979Z,0.40
2022-10-05T11:24:44.094Z,0.50
2022-10-05T11:27:57.079Z,0.30
2022-10-05T11:31:14.525Z,0.40
2022-10-05T11:34:39.029Z,0.50
2022-10-05T11:38:01.428Z,0.40
2022-10-05T11:40:44.306Z,0.40
2022-10-05T11:43:39.045Z,0.50
2022-10-05T11:46:36.086Z,0.40
2022-10-05T11:49:23.846Z,0.40
2022-10-05T11:52:18.646Z,0.30
2022-10-05T11:55:24.468Z,0.70
2022-10-05T11:57:55.970Z,0.50
2022-10-05T12:00:30.836Z,0.60
2022-10-05T12:03:30.556Z,0.50
2022-10-05T12:06:18.940Z,0.40
2022-10-05T12:09:14.565Z,0.50
2022-10-05T12:12:22.364Z,0.50
2022-10-05T12:15:27.554Z,0.40
2022-10-05T12:18:29.507Z,0.40
2022-10-05T12:21:33.869Z,0.70
2022-10-05T12:24:28.424Z,0.90
2022-10-05T12:27:07.239Z,0.60
2022-10-05T12:30:18.247Z,0.60
2022-10-05T12:32:44.497Z,0.60
2022-10-05T12:35:47.887Z,1.00
2022-10-05T12:38:57.986Z,0.30
2022-10-05T12:41:46.163Z,0.60
2022-10-05T12:44:37.516Z,0.30
2022-10-05T12:47:23.819Z,0.30
2022-10-05T12:50:16.185Z,0.30
2022-10-05T12:53:04.377Z,0.40
2022-10-05T12:55:52.778Z,0.90
2022-10-05T12:58:21.913Z,0.80
2022-10-05T13:01:06.762Z,0.30
2022-10-05T13:03:49.435Z,0.30
2022-10-05T13:06:41.920Z,0.70
2022-10-05T13:09:22.838Z,0.30
2022-10-05T13:11:54.842Z,0.60
2022-10-05T13:15:06.681Z,0.50
2022-10-05T13:18:16.288Z,0.50
2022-10-05T13:21:20.607Z,0.40
2022-10-05T13:23:57.108Z,0.70
2022-10-05T13:26:38.477Z,2.30
2022-10-05T13:29:34.319Z,0.80
2022-10-05T13:32:36.985Z,1.10
2022-10-05T13:35:21.826Z,1.40
2022-10-05T13:38:01.041Z,0.90
2022-10-05T13:41:14.613Z,0.80
2022-10-05T13:44:30.474Z,0.70
2022-10-05T13:47:34.867Z,0.90
2022-10-05T13:50:32.678Z,0.70
2022-10-05T13:53:49.254Z,0.40
2022-10-05T13:56:34.964Z,0.50
2022-10-05T13:59:19.333Z,0.40
2022-10-05T14:02:04.750Z,0.50
2022-10-05T14:05:00.551Z,0.50
2022-10-05T14:08:02.161Z,0.40
2022-10-05T14:10:45.031Z,0.60
2022-10-05T14:13:46.900Z,0.20
2022-10-05T14:16:25.978Z,0.50
2022-10-05T14:19:18.978Z,0.30
2022-10-05T14:22:00.784Z,0.50
2022-10-05T14:24:44.801Z,0.60
2022-10-05T14:27:31.713Z,0.60
2022-10-05T14:30:14.949Z,0.40
2022-10-05T14:33:05.987Z,0.60
2022-10-05T14:35:50.525Z,1.40
2022-10-05T14:38:46.139Z,0.70
2022-10-05T14:41:21.389Z,0.90
2022-10-05T14:43:56.039Z,1.40
2022-10-05T14:46:29.081Z,0.90
2022-10-05T14:49:28.716Z,0.80
2022-10-05T14:51:56.303Z,0.70
2022-10-05T14:54:55.154Z,0.90
2022-10-05T14:57:31.890Z,1.00
2022-10-05T15:00:16.798Z,0.80
2022-10-05T15:03:19.358Z,1.40
2022-10-05T15:05:59.789Z,1.70
2022-10-05T15:09:18.881Z,1.10
2022-10-05T15:11:56.164Z,1.10
2022-10-05T15:14:58.814Z,1.20
2022-10-05T15:20:24.654Z,0.90
2022-10-05T15:23:24.070Z,1.20
2022-10-05T15:26:22.091Z,1.40
2022-10-05T15:28:59.993Z,1.20
2022-10-05T15:31:51.706Z,1.50
2022-10-05T15:34:57.826Z,1.30
2022-10-05T15:37:47.455Z,1.50
2022-10-05T15:40:58.711Z,1.70
2022-10-05T15:44:07.430Z,1.30
2022-10-05T15:47:08.263Z,1.70
2022-10-05T15:50:01.356Z,1.30
2022-10-05T15:52:45.791Z,1.30
2022-10-05T15:55:42.163Z,0.90
2022-10-05T15:58:51.673Z,0.90
2022-10-05T16:01:48.343Z,0.80
2022-10-05T16:04:36.557Z,0.70
2022-10-05T16:07:27.627Z,1.10
2022-10-05T16:10:17.717Z,1.20
2022-10-05T16:13:59.153Z,0.70
2022-10-05T16:17:06.370Z,0.80
2022-10-05T16:20:14.437Z,1.00
2022-10-05T16:22:58.949Z,1.00
2022-10-05T16:25:33.584Z,0.60
2022-10-05T16:28:17.022Z,0.80
2022-10-05T16:33:56.277Z,0.70
2022-10-05T16:36:57.041Z,0.50
2022-10-05T16:40:08.270Z,0.80
2022-10-05T16:42:42.367Z,0.60
2022-10-05T16:45:45.098Z,0.90
2022-10-05T16:48:27.649Z,0.70
2022-10-05T16:51:12.455Z,0.50
2022-10-05T16:54:14.209Z,1.10
2022-10-05T16:56:59.640Z,1.10
2022-10-05T17:00:15.611Z,1.00
2022-10-05T17:03:18.063Z,0.60
2022-10-05T17:06:08.950Z,0.60
2022-10-05T17:09:09.754Z,0.40
2022-10-05T17:11:55.740Z,0.50
2022-10-05T17:15:14.005Z,0.40
2022-10-05T17:18:38.915Z,0.30
2022-10-05T17:21:21.009Z,0.50
2022-10-05T17:24:47.535Z,0.30
2022-10-05T17:27:50.806Z,0.30
2022-10-05T17:30:26.860Z,0.50
2022-10-05T17:33:17.857Z,0.50
2022-10-05T17:36:04.043Z,0.50
2022-10-05T17:38:35.016Z,0.40
2022-10-05T17:41:17.345Z,1.50
2022-10-05T17:44:21.759Z,0.70
2022-10-05T17:46:55.491Z,0.30
2022-10-05T17:49:33.606Z,0.30
2022-10-05T17:52:26.760Z,0.30
2022-10-05T17:55:27.637Z,0.70
2022-10-05T17:58:23.619Z,0.50
2022-10-05T18:00:56.646Z,0.40
2022-10-05T18:03:49.694Z,0.40
2022-10-05T18:06:39.144Z,0.40
2022-10-05T18:09:19.677Z,0.40
2022-10-05T18:12:27.726Z,0.60
2022-10-05T18:15:01.138Z,0.30
2022-10-05T18:17:45.426Z,0.30
2022-10-05T18:20:24.695Z,0.30
2022-10-05T18:23:14.038Z,0.20
2022-10-05T18:26:01.026Z,0.40
2022-10-05T18:28:55.459Z,0.10
2022-10-05T18:32:07.495Z,0.70
2022-10-05T18:35:51.106Z,0.50
2022-10-05T18:38:43.701Z,0.70
2022-10-05T18:41:52.558Z,0.30
2022-10-05T18:44:32.151Z,0.20
2022-10-05T18:47:35.687Z,0.30
2022-10-05T18:50:31.672Z,0.30
2022-10-05T18:53:20.257Z,0.20
2022-10-05T18:55:59.031Z,0.30
2022-10-05T18:58:58.966Z,0.70
2022-10-05T19:01:57.784Z,0.50
2022-10-05T19:04:42.244Z,0.40
2022-10-05T19:07:42.383Z,0.40
2022-10-05T19:10:36.697Z,0.50
2022-10-05T19:13:46.453Z,0.40
2022-10-05T19:16:34.625Z,0.30
2022-10-05T19:19:33.114Z,0.20
2022-10-05T19:22:57.812Z,0.30
2022-10-05T19:26:14.599Z,0.30
2022-10-05T19:29:39.552Z,0.40
2022-10-05T19:32:21.660Z,6.80
2022-10-05T19:35:15.334Z,0.90
2022-10-05T19:38:00.164Z,4.70
2022-10-05T19:40:47.696Z,6.50
2022-10-05T19:43:45.982Z,8.40
2022-10-05T19:46:54.500Z,7.10
2022-10-05T19:49:51.295Z,1.60
2022-10-05T19:52:48.994Z,0.80
2022-10-05T19:55:23.564Z,0.60
2022-10-05T19:58:00.652Z,0.40
2022-10-05T20:00:34.729Z,0.40
2022-10-05T20:03:26.594Z,0.20
2022-10-05T20:06:26.177Z,0.20
2022-10-05T20:09:01.085Z,0.20
2022-10-05T20:12:02.259Z,0.20
2022-10-05T20:14:33.109Z,0.30
2022-10-05T20:17:48.026Z,0.40
2022-10-05T20:20:47.146Z,0.30
2022-10-05T20:23:27.354Z,0.30
2022-10-05T20:26:13.147Z,0.30
2022-10-05T20:28:41.041Z,0.30
2022-10-05T20:31:09.409Z,0.40
2022-10-05T20:33:38.462Z,0.30
2022-10-05T20:36:06.323Z,0.40
2022-10-05T20:38:40.039Z,0.30
2022-10-05T20:41:08.088Z,0.50
2022-10-05T20:43:38.314Z,0.30
2022-10-05T20:46:05.942Z,0.40
2022-10-05T20:48:34.399Z,0.40
2022-10-05T20:51:01.592Z,1.50
2022-10-05T20:53:31.237Z,0.80
2022-10-05T20:56:01.884Z,0.50
2022-10-05T20:58:28.360Z,0.50
2022-10-05T21:01:14.262Z,0.60
2022-10-05T21:03:43.681Z,0.40
2022-10-05T21:06:10.981Z,0.40
2022-10-05T21:08:39.133Z,0.30
2022-10-05T21:11:08.312Z,0.30
2022-10-05T21:13:38.185Z,0.20
2022-10-05T21:16:08.977Z,0.30
2022-10-05T21:18:36.659Z,0.20
2022-10-05T21:21:03.443Z,0.20
2022-10-05T21:23:31.990Z,0.40
2022-10-05T21:25:59.511Z,0.30
2022-10-05T21:28:29.179Z,0.30
2022-10-05T21:30:56.768Z,0.40
2022-10-05T21:33:23.413Z,0.30
2022-10-05T21:35:49.824Z,0.50
2022-10-05T21:38:16.405Z,0.40
2022-10-05T21:40:44.746Z,0.40
2022-10-05T21:43:12.836Z,1.10
2022-10-05T21:45:39.762Z,0.50
2022-10-05T21:48:08.093Z,0.80
2022-10-05T21:50:36.451Z,0.50
2022-10-05T21:53:06.847Z,0.50
2022-10-05T21:55:41.299Z,0.60
2022-10-05T21:58:08.340Z,2.00
2022-10-05T22:00:34.923Z,2.00
2022-10-05T22:03:02.278Z,2.00
2022-10-05T22:05:30.162Z,1.40
2022-10-05T22:07:59.534Z,1.00
2022-10-05T22:10:26.546Z,0.60
2022-10-05T22:13:01.660Z,0.70
2022-10-05T22:15:30.305Z,0.40
2022-10-05T22:17:59.033Z,0.40
2022-10-05T22:20:26.924Z,0.70
2022-10-05T22:22:54.837Z,0.40
2022-10-05T22:25:25.154Z,0.50
2022-10-05T22:27:51.573Z,0.50
2022-10-05T22:30:19.731Z,2.00
2022-10-05T22:32:46.390Z,0.50
2022-10-05T22:35:12.873Z,0.50
2022-10-05T22:37:39.265Z,0.20
2022-10-05T22:40:07.299Z,0.30
2022-10-05T22:42:35.657Z,0.20
2022-10-05T22:45:02.135Z,0.20
2022-10-05T22:47:30.264Z,0.30
2022-10-05T22:49:57.012Z,0.30
2022-10-05T22:52:25.734Z,0.40
2022-10-05T22:54:53.080Z,0.30
2022-10-05T22:57:20.989Z,0.30
2022-10-05T22:59:47.289Z,0.80
2022-10-05T23:02:14.083Z,0.40
2022-10-05T23:04:40.711Z,0.40
2022-10-05T23:07:07.317Z,0.20
2022-10-05T23:09:33.821Z,0.20
2022-10-05T23:12:00.577Z,0.20
2022-10-05T23:14:30.189Z,0.20
2022-10-05T23:16:57.029Z,0.20
2022-10-05T23:19:24.075Z,0.30
2022-10-05T23:21:50.574Z,0.20
2022-10-05T23:24:17.020Z,0.20
2022-10-05T23:26:45.290Z,0.30
2022-10-05T23:29:11.675Z,0.20
2022-10-05T23:31:38.184Z,0.20
2022-10-05T23:34:04.633Z,0.30
2022-10-05T23:36:32.454Z,0.30
2022-10-05T23:39:01.493Z,0.20
2022-10-05T23:41:28.472Z,0.10
2022-10-05T23:43:54.879Z,0.20
2022-10-05T23:46:22.252Z,0.20
2022-10-05T23:48:50.344Z,0.50
2022-10-05T23:51:19.532Z,0.10
2022-10-05T23:53:45.985Z,0.20
2022-10-05T23:56:12.952Z,0.20
2022-10-05T23:58:42.367Z,0.20
